sensor_id;sensor_type;location;lat;lon;timestamp;temperature;humidity
43808;DHT22;29438;50.664;10.098;2023-03-14T00:02:05;8.70;84.80
43808;DHT22;29438;50.664;10.098;2023-03-14T00:04:30;8.80;84.50
43808;DHT22;29438;50.664;10.098;2023-03-14T00:06:56;9.00;84.30
43808;DHT22;29438;50.664;10.098;2023-03-14T00:09:21;8.90;84.10
43808;DHT22;29438;50.664;10.098;2023-03-14T00:11:47;9.20;83.20
43808;DHT22;29438;50.664;10.098;2023-03-14T00:14:12;9.20;83.10
43808;DHT22;29438;50.664;10.098;2023-03-14T00:16:38;9.20;83.60
43808;DHT22;29438;50.664;10.098;2023-03-14T00:19:03;9.20;84.00
43808;DHT22;29438;50.664;10.098;2023-03-14T00:21:29;9.20;83.90
43808;DHT22;29438;50.664;10.098;2023-03-14T00:23:54;9.20;83.60
43808;DHT22;29438;50.664;10.098;2023-03-14T00:26:21;9.30;83.40
43808;DHT22;29438;50.664;10.098;2023-03-14T00:28:50;9.30;83.30
43808;DHT22;29438;50.664;10.098;2023-03-14T00:31:16;9.30;83.50
43808;DHT22;29438;50.664;10.098;2023-03-14T00:33:43;9.30;83.10
43808;DHT22;29438;50.664;10.098;2023-03-14T00:36:16;9.30;83.70
43808;DHT22;29438;50.664;10.098;2023-03-14T00:38:43;9.30;83.80
43808;DHT22;29438;50.664;10.098;2023-03-14T00:41:12;9.20;84.40
43808;DHT22;29438;50.664;10.098;2023-03-14T00:43:38;9.20;84.60
43808;DHT22;29438;50.664;10.098;2023-03-14T00:46:05;9.20;84.60
43808;DHT22;29438;50.664;10.098;2023-03-14T00:48:31;9.20;84.40
43808;DHT22;29438;50.664;10.098;2023-03-14T00:50:56;9.10;84.40
43808;DHT22;29438;50.664;10.098;2023-03-14T00:53:23;9.20;84.60
43808;DHT22;29438;50.664;10.098;2023-03-14T00:55:49;9.20;84.00
43808;DHT22;29438;50.664;10.098;2023-03-14T00:58:16;9.20;84.50
43808;DHT22;29438;50.664;10.098;2023-03-14T01:00:43;9.10;84.50
43808;DHT22;29438;50.664;10.098;2023-03-14T01:03:09;9.00;84.50
43808;DHT22;29438;50.664;10.098;2023-03-14T01:05:35;9.00;84.90
43808;DHT22;29438;50.664;10.098;2023-03-14T01:08:01;9.00;84.70
43808;DHT22;29438;50.664;10.098;2023-03-14T01:10:27;9.00;85.00
43808;DHT22;29438;50.664;10.098;2023-03-14T01:12:52;9.00;84.60
43808;DHT22;29438;50.664;10.098;2023-03-14T01:15:18;9.00;84.60
43808;DHT22;29438;50.664;10.098;2023-03-14T01:17:44;9.10;84.30
43808;DHT22;29438;50.664;10.098;2023-03-14T01:20:11;9.10;84.70
43808;DHT22;29438;50.664;10.098;2023-03-14T01:22:38;9.00;84.90
43808;DHT22;29438;50.664;10.098;2023-03-14T01:25:10;9.00;84.90
43808;DHT22;29438;50.664;10.098;2023-03-14T01:27:36;9.00;84.90
43808;DHT22;29438;50.664;10.098;2023-03-14T01:30:03;9.10;84.90
43808;DHT22;29438;50.664;10.098;2023-03-14T01:32:28;9.10;84.90
43808;DHT22;29438;50.664;10.098;2023-03-14T01:34:54;9.10;84.90
43808;DHT22;29438;50.664;10.098;2023-03-14T01:37:20;9.00;85.10
43808;DHT22;29438;50.664;10.098;2023-03-14T01:39:47;9.10;85.00
43808;DHT22;29438;50.664;10.098;2023-03-14T01:42:13;9.10;85.10
43808;DHT22;29438;50.664;10.098;2023-03-14T01:44:57;9.00;85.40
43808;DHT22;29438;50.664;10.098;2023-03-14T01:47:23;9.00;85.50
43808;DHT22;29438;50.664;10.098;2023-03-14T01:50:04;9.00;85.50
43808;DHT22;29438;50.664;10.098;2023-03-14T01:52:41;9.00;85.30
43808;DHT22;29438;50.664;10.098;2023-03-14T01:55:12;9.00;85.20
43808;DHT22;29438;50.664;10.098;2023-03-14T01:57:50;9.00;85.40
43808;DHT22;29438;50.664;10.098;2023-03-14T02:00:20;9.00;85.40
43808;DHT22;29438;50.664;10.098;2023-03-14T02:03:01;9.00;85.40
43808;DHT22;29438;50.664;10.098;2023-03-14T02:05:32;8.90;85.50
43808;DHT22;29438;50.664;10.098;2023-03-14T02:08:00;8.70;85.80
43808;DHT22;29438;50.664;10.098;2023-03-14T02:10:32;8.70;86.10
43808;DHT22;29438;50.664;10.098;2023-03-14T02:13:00;8.80;85.70
43808;DHT22;29438;50.664;10.098;2023-03-14T02:15:27;8.80;86.00
43808;DHT22;29438;50.664;10.098;2023-03-14T02:17:53;8.80;85.60
43808;DHT22;29438;50.664;10.098;2023-03-14T02:22:47;8.80;85.50
43808;DHT22;29438;50.664;10.098;2023-03-14T02:25:20;8.90;85.40
43808;DHT22;29438;50.664;10.098;2023-03-14T02:27:48;8.80;85.70
43808;DHT22;29438;50.664;10.098;2023-03-14T02:32:45;8.80;86.20
43808;DHT22;29438;50.664;10.098;2023-03-14T02:35:14;8.80;85.70
43808;DHT22;29438;50.664;10.098;2023-03-14T02:38:06;8.90;85.80
43808;DHT22;29438;50.664;10.098;2023-03-14T02:40:33;8.80;86.10
43808;DHT22;29438;50.664;10.098;2023-03-14T02:42:59;8.80;86.30
43808;DHT22;29438;50.664;10.098;2023-03-14T02:47:55;8.80;86.00
43808;DHT22;29438;50.664;10.098;2023-03-14T02:50:26;8.80;86.10
43808;DHT22;29438;50.664;10.098;2023-03-14T02:52:51;8.80;86.00
43808;DHT22;29438;50.664;10.098;2023-03-14T02:55:21;8.80;85.70
43808;DHT22;29438;50.664;10.098;2023-03-14T02:57:50;8.80;85.90
43808;DHT22;29438;50.664;10.098;2023-03-14T03:00:16;8.80;85.80
43808;DHT22;29438;50.664;10.098;2023-03-14T03:02:41;8.80;85.70
43808;DHT22;29438;50.664;10.098;2023-03-14T03:05:07;8.80;85.20
43808;DHT22;29438;50.664;10.098;2023-03-14T03:07:32;8.80;85.20
43808;DHT22;29438;50.664;10.098;2023-03-14T03:09:58;8.80;85.30
43808;DHT22;29438;50.664;10.098;2023-03-14T03:12:24;8.80;85.40
43808;DHT22;29438;50.664;10.098;2023-03-14T03:14:49;8.80;85.50
43808;DHT22;29438;50.664;10.098;2023-03-14T03:17:14;8.80;85.20
43808;DHT22;29438;50.664;10.098;2023-03-14T03:19:40;8.80;85.10
43808;DHT22;29438;50.664;10.098;2023-03-14T03:22:06;8.80;85.40
43808;DHT22;29438;50.664;10.098;2023-03-14T03:24:32;8.80;85.40
43808;DHT22;29438;50.664;10.098;2023-03-14T03:26:57;8.80;85.30
43808;DHT22;29438;50.664;10.098;2023-03-14T03:29:23;8.80;85.50
43808;DHT22;29438;50.664;10.098;2023-03-14T03:31:48;8.80;85.50
43808;DHT22;29438;50.664;10.098;2023-03-14T03:34:14;8.80;85.40
43808;DHT22;29438;50.664;10.098;2023-03-14T03:36:40;8.70;85.60
43808;DHT22;29438;50.664;10.098;2023-03-14T03:39:06;8.70;85.40
43808;DHT22;29438;50.664;10.098;2023-03-14T03:41:32;8.70;85.30
43808;DHT22;29438;50.664;10.098;2023-03-14T03:43:57;8.70;85.50
43808;DHT22;29438;50.664;10.098;2023-03-14T03:46:23;8.70;85.50
43808;DHT22;29438;50.664;10.098;2023-03-14T03:48:54;8.70;85.80
43808;DHT22;29438;50.664;10.098;2023-03-14T03:51:20;8.80;85.20
43808;DHT22;29438;50.664;10.098;2023-03-14T03:53:45;8.80;85.40
43808;DHT22;29438;50.664;10.098;2023-03-14T03:56:11;8.70;85.50
43808;DHT22;29438;50.664;10.098;2023-03-14T03:58:36;8.70;85.60
43808;DHT22;29438;50.664;10.098;2023-03-14T04:01:04;8.70;86.10
43808;DHT22;29438;50.664;10.098;2023-03-14T04:03:30;8.70;86.20
43808;DHT22;29438;50.664;10.098;2023-03-14T04:06:04;8.60;86.50
43808;DHT22;29438;50.664;10.098;2023-03-14T04:08:30;8.60;86.50
43808;DHT22;29438;50.664;10.098;2023-03-14T04:10:57;8.60;86.20
43808;DHT22;29438;50.664;10.098;2023-03-14T04:13:24;8.60;86.00
43808;DHT22;29438;50.664;10.098;2023-03-14T04:15:50;8.60;85.80
43808;DHT22;29438;50.664;10.098;2023-03-14T04:18:16;8.60;85.50
43808;DHT22;29438;50.664;10.098;2023-03-14T04:20:41;8.60;85.60
43808;DHT22;29438;50.664;10.098;2023-03-14T04:23:07;8.60;85.70
43808;DHT22;29438;50.664;10.098;2023-03-14T04:25:32;8.60;85.40
43808;DHT22;29438;50.664;10.098;2023-03-14T04:27:58;8.60;85.70
43808;DHT22;29438;50.664;10.098;2023-03-14T04:30:23;8.60;85.50
43808;DHT22;29438;50.664;10.098;2023-03-14T04:32:49;8.60;85.60
43808;DHT22;29438;50.664;10.098;2023-03-14T04:35:14;8.60;85.10
43808;DHT22;29438;50.664;10.098;2023-03-14T04:37:40;8.60;84.70
43808;DHT22;29438;50.664;10.098;2023-03-14T04:40:09;8.60;85.10
43808;DHT22;29438;50.664;10.098;2023-03-14T04:42:35;8.60;85.00
43808;DHT22;29438;50.664;10.098;2023-03-14T04:45:00;8.60;85.00
43808;DHT22;29438;50.664;10.098;2023-03-14T04:47:26;8.60;85.30
43808;DHT22;29438;50.664;10.098;2023-03-14T04:49:52;8.50;85.20
43808;DHT22;29438;50.664;10.098;2023-03-14T04:52:17;8.50;85.10
43808;DHT22;29438;50.664;10.098;2023-03-14T04:54:43;8.50;84.90
43808;DHT22;29438;50.664;10.098;2023-03-14T04:57:09;8.50;85.00
43808;DHT22;29438;50.664;10.098;2023-03-14T04:59:34;8.50;85.00
43808;DHT22;29438;50.664;10.098;2023-03-14T05:02:00;8.50;85.10
43808;DHT22;29438;50.664;10.098;2023-03-14T05:04:25;8.40;85.10
43808;DHT22;29438;50.664;10.098;2023-03-14T05:06:51;8.40;85.10
43808;DHT22;29438;50.664;10.098;2023-03-14T05:09:17;8.50;84.70
43808;DHT22;29438;50.664;10.098;2023-03-14T05:11:42;8.60;84.60
43808;DHT22;29438;50.664;10.098;2023-03-14T05:14:08;8.50;84.80
43808;DHT22;29438;50.664;10.098;2023-03-14T05:16:33;8.50;84.70
43808;DHT22;29438;50.664;10.098;2023-03-14T05:18:59;8.50;84.90
43808;DHT22;29438;50.664;10.098;2023-03-14T05:21:26;8.50;84.70
43808;DHT22;29438;50.664;10.098;2023-03-14T05:23:52;8.50;84.80
43808;DHT22;29438;50.664;10.098;2023-03-14T05:26:17;8.50;84.60
43808;DHT22;29438;50.664;10.098;2023-03-14T05:28:43;8.50;84.80
43808;DHT22;29438;50.664;10.098;2023-03-14T05:31:09;8.50;84.80
43808;DHT22;29438;50.664;10.098;2023-03-14T05:33:35;8.50;84.90
43808;DHT22;29438;50.664;10.098;2023-03-14T05:36:00;8.50;84.80
43808;DHT22;29438;50.664;10.098;2023-03-14T05:38:26;8.50;84.70
43808;DHT22;29438;50.664;10.098;2023-03-14T05:40:51;8.50;84.80
43808;DHT22;29438;50.664;10.098;2023-03-14T05:43:17;8.60;84.40
43808;DHT22;29438;50.664;10.098;2023-03-14T05:45:42;8.60;84.30
43808;DHT22;29438;50.664;10.098;2023-03-14T05:48:08;8.50;84.70
43808;DHT22;29438;50.664;10.098;2023-03-14T05:50:34;8.50;84.50
43808;DHT22;29438;50.664;10.098;2023-03-14T05:53:00;8.50;84.70
43808;DHT22;29438;50.664;10.098;2023-03-14T05:55:25;8.50;84.60
43808;DHT22;29438;50.664;10.098;2023-03-14T05:57:52;8.50;84.70
43808;DHT22;29438;50.664;10.098;2023-03-14T06:00:18;8.50;84.80
43808;DHT22;29438;50.664;10.098;2023-03-14T06:02:43;8.50;85.10
43808;DHT22;29438;50.664;10.098;2023-03-14T06:05:09;8.40;85.70
43808;DHT22;29438;50.664;10.098;2023-03-14T06:07:34;8.30;86.00
43808;DHT22;29438;50.664;10.098;2023-03-14T06:10:00;8.30;86.20
43808;DHT22;29438;50.664;10.098;2023-03-14T06:12:26;8.30;86.20
43808;DHT22;29438;50.664;10.098;2023-03-14T06:14:51;8.30;86.00
43808;DHT22;29438;50.664;10.098;2023-03-14T06:17:17;8.30;85.80
43808;DHT22;29438;50.664;10.098;2023-03-14T06:19:42;8.40;85.30
43808;DHT22;29438;50.664;10.098;2023-03-14T06:22:08;8.40;84.50
43808;DHT22;29438;50.664;10.098;2023-03-14T06:24:33;8.50;84.50
43808;DHT22;29438;50.664;10.098;2023-03-14T06:26:59;8.50;84.60
43808;DHT22;29438;50.664;10.098;2023-03-14T06:29:24;8.50;84.20
43808;DHT22;29438;50.664;10.098;2023-03-14T06:31:50;8.50;84.40
43808;DHT22;29438;50.664;10.098;2023-03-14T06:34:15;8.50;84.50
43808;DHT22;29438;50.664;10.098;2023-03-14T06:36:41;8.50;84.60
43808;DHT22;29438;50.664;10.098;2023-03-14T06:39:06;8.60;84.80
43808;DHT22;29438;50.664;10.098;2023-03-14T06:41:32;8.60;84.40
43808;DHT22;29438;50.664;10.098;2023-03-14T06:43:58;8.60;84.50
43808;DHT22;29438;50.664;10.098;2023-03-14T06:46:23;8.50;84.80
43808;DHT22;29438;50.664;10.098;2023-03-14T06:48:49;8.50;84.80
43808;DHT22;29438;50.664;10.098;2023-03-14T06:51:14;8.60;84.40
43808;DHT22;29438;50.664;10.098;2023-03-14T06:53:40;8.60;84.60
43808;DHT22;29438;50.664;10.098;2023-03-14T06:56:06;8.70;84.30
43808;DHT22;29438;50.664;10.098;2023-03-14T06:58:32;8.70;84.50
43808;DHT22;29438;50.664;10.098;2023-03-14T07:00:57;8.70;83.90
43808;DHT22;29438;50.664;10.098;2023-03-14T07:03:24;8.60;83.90
43808;DHT22;29438;50.664;10.098;2023-03-14T07:05:49;8.60;84.30
43808;DHT22;29438;50.664;10.098;2023-03-14T07:08:15;8.60;84.10
43808;DHT22;29438;50.664;10.098;2023-03-14T07:10:41;8.70;83.80
43808;DHT22;29438;50.664;10.098;2023-03-14T07:13:06;8.70;83.70
43808;DHT22;29438;50.664;10.098;2023-03-14T07:15:32;8.70;83.70
43808;DHT22;29438;50.664;10.098;2023-03-14T07:17:57;8.80;83.40
43808;DHT22;29438;50.664;10.098;2023-03-14T07:20:23;8.90;83.20
43808;DHT22;29438;50.664;10.098;2023-03-14T07:22:49;9.00;83.00
43808;DHT22;29438;50.664;10.098;2023-03-14T07:25:16;8.90;83.10
43808;DHT22;29438;50.664;10.098;2023-03-14T07:27:44;9.00;83.10
43808;DHT22;29438;50.664;10.098;2023-03-14T07:30:10;9.00;82.90
43808;DHT22;29438;50.664;10.098;2023-03-14T07:32:36;8.90;83.70
43808;DHT22;29438;50.664;10.098;2023-03-14T07:35:02;8.90;83.90
43808;DHT22;29438;50.664;10.098;2023-03-14T07:37:27;9.10;83.60
43808;DHT22;29438;50.664;10.098;2023-03-14T07:39:53;9.30;83.30
43808;DHT22;29438;50.664;10.098;2023-03-14T07:42:19;9.40;82.90
43808;DHT22;29438;50.664;10.098;2023-03-14T07:44:44;9.60;83.00
43808;DHT22;29438;50.664;10.098;2023-03-14T07:47:09;10.00;81.90
43808;DHT22;29438;50.664;10.098;2023-03-14T07:49:35;10.30;80.80
43808;DHT22;29438;50.664;10.098;2023-03-14T07:52:00;10.40;81.00
43808;DHT22;29438;50.664;10.098;2023-03-14T07:54:26;9.90;80.50
43808;DHT22;29438;50.664;10.098;2023-03-14T07:56:52;9.80;82.00
43808;DHT22;29438;50.664;10.098;2023-03-14T07:59:18;10.10;81.80
43808;DHT22;29438;50.664;10.098;2023-03-14T08:01:43;10.30;79.90
43808;DHT22;29438;50.664;10.098;2023-03-14T08:04:09;10.50;80.00
43808;DHT22;29438;50.664;10.098;2023-03-14T08:06:36;10.90;78.20
43808;DHT22;29438;50.664;10.098;2023-03-14T08:09:02;10.50;78.30
43808;DHT22;29438;50.664;10.098;2023-03-14T08:11:27;10.40;80.10
43808;DHT22;29438;50.664;10.098;2023-03-14T08:13:53;10.60;79.50
43808;DHT22;29438;50.664;10.098;2023-03-14T08:16:19;10.30;79.60
43808;DHT22;29438;50.664;10.098;2023-03-14T08:18:45;10.30;79.80
43808;DHT22;29438;50.664;10.098;2023-03-14T08:21:11;10.20;80.70
43808;DHT22;29438;50.664;10.098;2023-03-14T08:23:36;9.90;81.30
43808;DHT22;29438;50.664;10.098;2023-03-14T08:26:02;9.90;81.60
43808;DHT22;29438;50.664;10.098;2023-03-14T08:28:27;9.90;81.70
43808;DHT22;29438;50.664;10.098;2023-03-14T08:30:58;9.90;81.80
43808;DHT22;29438;50.664;10.098;2023-03-14T08:33:24;10.00;81.90
43808;DHT22;29438;50.664;10.098;2023-03-14T08:35:58;10.20;81.00
43808;DHT22;29438;50.664;10.098;2023-03-14T08:38:24;10.00;81.60
43808;DHT22;29438;50.664;10.098;2023-03-14T08:40:55;10.20;81.70
43808;DHT22;29438;50.664;10.098;2023-03-14T08:43:21;10.50;80.50
43808;DHT22;29438;50.664;10.098;2023-03-14T08:45:46;10.50;80.90
43808;DHT22;29438;50.664;10.098;2023-03-14T08:48:12;10.50;80.30
43808;DHT22;29438;50.664;10.098;2023-03-14T08:50:37;10.50;80.50
43808;DHT22;29438;50.664;10.098;2023-03-14T08:53:03;10.90;79.30
43808;DHT22;29438;50.664;10.098;2023-03-14T08:55:29;10.90;79.00
43808;DHT22;29438;50.664;10.098;2023-03-14T08:57:54;10.80;80.20
43808;DHT22;29438;50.664;10.098;2023-03-14T09:00:20;10.80;79.30
43808;DHT22;29438;50.664;10.098;2023-03-14T09:02:46;10.90;79.90
43808;DHT22;29438;50.664;10.098;2023-03-14T09:05:12;11.10;79.60
43808;DHT22;29438;50.664;10.098;2023-03-14T09:07:38;10.90;79.70
43808;DHT22;29438;50.664;10.098;2023-03-14T09:10:06;10.40;81.00
43808;DHT22;29438;50.664;10.098;2023-03-14T09:12:31;10.40;81.60
43808;DHT22;29438;50.664;10.098;2023-03-14T09:14:57;10.30;81.80
43808;DHT22;29438;50.664;10.098;2023-03-14T09:17:22;10.50;81.70
43808;DHT22;29438;50.664;10.098;2023-03-14T09:19:48;10.30;82.70
43808;DHT22;29438;50.664;10.098;2023-03-14T09:22:13;10.30;82.20
43808;DHT22;29438;50.664;10.098;2023-03-14T09:24:40;10.40;82.40
43808;DHT22;29438;50.664;10.098;2023-03-14T09:27:06;10.50;82.40
43808;DHT22;29438;50.664;10.098;2023-03-14T09:29:32;10.40;82.20
43808;DHT22;29438;50.664;10.098;2023-03-14T09:31:58;10.20;82.80
43808;DHT22;29438;50.664;10.098;2023-03-14T09:34:23;10.00;82.90
43808;DHT22;29438;50.664;10.098;2023-03-14T09:36:49;10.00;84.00
43808;DHT22;29438;50.664;10.098;2023-03-14T09:39:14;10.00;84.10
43808;DHT22;29438;50.664;10.098;2023-03-14T09:41:45;9.90;83.80
43808;DHT22;29438;50.664;10.098;2023-03-14T09:44:21;10.00;84.10
43808;DHT22;29438;50.664;10.098;2023-03-14T09:46:51;10.30;83.50
43808;DHT22;29438;50.664;10.098;2023-03-14T09:49:25;10.60;83.40
43808;DHT22;29438;50.664;10.098;2023-03-14T09:51:54;10.70;82.50
43808;DHT22;29438;50.664;10.098;2023-03-14T09:54:38;10.50;82.40
43808;DHT22;29438;50.664;10.098;2023-03-14T09:57:08;10.20;82.70
43808;DHT22;29438;50.664;10.098;2023-03-14T09:59:36;10.00;83.00
43808;DHT22;29438;50.664;10.098;2023-03-14T10:02:23;10.50;83.00
43808;DHT22;29438;50.664;10.098;2023-03-14T10:04:51;11.20;81.80
43808;DHT22;29438;50.664;10.098;2023-03-14T10:07:21;11.30;80.50
43808;DHT22;29438;50.664;10.098;2023-03-14T10:09:49;11.30;80.20
43808;DHT22;29438;50.664;10.098;2023-03-14T10:12:15;11.00;80.90
43808;DHT22;29438;50.664;10.098;2023-03-14T10:14:46;10.80;81.20
43808;DHT22;29438;50.664;10.098;2023-03-14T10:17:13;10.70;81.90
43808;DHT22;29438;50.664;10.098;2023-03-14T10:19:55;10.50;82.40
43808;DHT22;29438;50.664;10.098;2023-03-14T10:22:22;10.30;82.80
43808;DHT22;29438;50.664;10.098;2023-03-14T10:24:53;10.20;83.70
43808;DHT22;29438;50.664;10.098;2023-03-14T10:27:27;10.20;84.50
43808;DHT22;29438;50.664;10.098;2023-03-14T10:30:06;10.30;84.00
43808;DHT22;29438;50.664;10.098;2023-03-14T10:32:45;10.20;84.50
43808;DHT22;29438;50.664;10.098;2023-03-14T10:38:01;10.20;84.90
43808;DHT22;29438;50.664;10.098;2023-03-14T10:40:38;10.30;84.90
43808;DHT22;29438;50.664;10.098;2023-03-14T10:43:06;10.70;83.90
43808;DHT22;29438;50.664;10.098;2023-03-14T10:45:40;10.60;83.90
43808;DHT22;29438;50.664;10.098;2023-03-14T10:51:09;10.30;84.40
43808;DHT22;29438;50.664;10.098;2023-03-14T10:53:50;10.20;85.00
43808;DHT22;29438;50.664;10.098;2023-03-14T10:56:22;10.30;83.60
43808;DHT22;29438;50.664;10.098;2023-03-14T10:58:50;10.60;83.20
43808;DHT22;29438;50.664;10.098;2023-03-14T11:06:53;11.10;81.20
43808;DHT22;29438;50.664;10.098;2023-03-14T11:11:47;11.90;78.70
43808;DHT22;29438;50.664;10.098;2023-03-14T11:14:36;12.00;78.60
43808;DHT22;29438;50.664;10.098;2023-03-14T11:17:24;12.20;77.80
43808;DHT22;29438;50.664;10.098;2023-03-14T11:28:21;11.70;79.10
43808;DHT22;29438;50.664;10.098;2023-03-14T11:31:33;12.00;78.90
43808;DHT22;29438;50.664;10.098;2023-03-14T11:33:47;11.80;78.70
43808;DHT22;29438;50.664;10.098;2023-03-14T11:36:27;11.60;79.90
43808;DHT22;29438;50.664;10.098;2023-03-14T11:38:57;11.30;81.10
43808;DHT22;29438;50.664;10.098;2023-03-14T11:41:30;11.30;82.10
43808;DHT22;29438;50.664;10.098;2023-03-14T11:43:59;11.10;83.10
43808;DHT22;29438;50.664;10.098;2023-03-14T11:46:36;11.00;83.00
43808;DHT22;29438;50.664;10.098;2023-03-14T11:49:30;10.80;83.20
43808;DHT22;29438;50.664;10.098;2023-03-14T11:52:00;10.70;83.90
43808;DHT22;29438;50.664;10.098;2023-03-14T11:54:46;10.70;83.80
43808;DHT22;29438;50.664;10.098;2023-03-14T11:57:18;10.90;83.30
43808;DHT22;29438;50.664;10.098;2023-03-14T12:05:20;10.60;82.60
43808;DHT22;29438;50.664;10.098;2023-03-14T12:10:15;10.70;83.60
43808;DHT22;29438;50.664;10.098;2023-03-14T12:12:40;10.60;83.30
43808;DHT22;29438;50.664;10.098;2023-03-14T12:15:18;10.70;83.80
43808;DHT22;29438;50.664;10.098;2023-03-14T12:17:44;10.70;83.20
43808;DHT22;29438;50.664;10.098;2023-03-14T12:20:25;10.60;83.00
43808;DHT22;29438;50.664;10.098;2023-03-14T12:23:02;10.60;83.30
43808;DHT22;29438;50.664;10.098;2023-03-14T12:25:30;10.70;82.60
43808;DHT22;29438;50.664;10.098;2023-03-14T12:30:39;10.60;82.30
43808;DHT22;29438;50.664;10.098;2023-03-14T12:33:19;10.70;83.00
43808;DHT22;29438;50.664;10.098;2023-03-14T12:41:29;10.10;84.50
43808;DHT22;29438;50.664;10.098;2023-03-14T12:46:56;9.70;86.40
43808;DHT22;29438;50.664;10.098;2023-03-14T12:49:29;10.00;85.90
43808;DHT22;29438;50.664;10.098;2023-03-14T12:52:00;10.20;85.50
43808;DHT22;29438;50.664;10.098;2023-03-14T12:57:28;10.30;84.80
43808;DHT22;29438;50.664;10.098;2023-03-14T13:00:18;10.40;84.60
43808;DHT22;29438;50.664;10.098;2023-03-14T13:02:45;10.60;84.10
43808;DHT22;29438;50.664;10.098;2023-03-14T13:05:24;10.40;84.20
43808;DHT22;29438;50.664;10.098;2023-03-14T13:10:49;10.70;83.70
43808;DHT22;29438;50.664;10.098;2023-03-14T13:15:44;10.00;85.30
43808;DHT22;29438;50.664;10.098;2023-03-14T13:18:23;9.70;86.10
43808;DHT22;29438;50.664;10.098;2023-03-14T13:21:05;9.60;87.20
43808;DHT22;29438;50.664;10.098;2023-03-14T13:23:33;9.30;87.50
43808;DHT22;29438;50.664;10.098;2023-03-14T13:26:00;9.10;88.60
43808;DHT22;29438;50.664;10.098;2023-03-14T13:28:26;9.00;88.90
43808;DHT22;29438;50.664;10.098;2023-03-14T13:31:02;8.70;89.50
43808;DHT22;29438;50.664;10.098;2023-03-14T13:33:28;8.40;88.90
43808;DHT22;29438;50.664;10.098;2023-03-14T13:36:06;8.00;88.10
43808;DHT22;29438;50.664;10.098;2023-03-14T13:38:35;7.80;88.50
43808;DHT22;29438;50.664;10.098;2023-03-14T13:41:04;7.70;89.00
43808;DHT22;29438;50.664;10.098;2023-03-14T13:43:32;7.60;89.40
43808;DHT22;29438;50.664;10.098;2023-03-14T13:46:10;7.70;90.30
43808;DHT22;29438;50.664;10.098;2023-03-14T13:48:47;7.60;90.40
43808;DHT22;29438;50.664;10.098;2023-03-14T13:51:15;7.50;90.60
43808;DHT22;29438;50.664;10.098;2023-03-14T13:53:45;7.50;90.50
43808;DHT22;29438;50.664;10.098;2023-03-14T13:56:11;7.40;90.00
43808;DHT22;29438;50.664;10.098;2023-03-14T13:58:38;7.30;90.00
43808;DHT22;29438;50.664;10.098;2023-03-14T14:03:43;7.20;89.50
43808;DHT22;29438;50.664;10.098;2023-03-14T14:06:37;7.10;89.90
43808;DHT22;29438;50.664;10.098;2023-03-14T14:09:15;7.00;90.50
43808;DHT22;29438;50.664;10.098;2023-03-14T14:14:45;6.80;89.90
43808;DHT22;29438;50.664;10.098;2023-03-14T14:17:15;6.70;90.40
43808;DHT22;29438;50.664;10.098;2023-03-14T14:19:44;6.70;91.20
43808;DHT22;29438;50.664;10.098;2023-03-14T14:22:11;6.60;91.20
43808;DHT22;29438;50.664;10.098;2023-03-14T14:24:37;6.60;91.50
43808;DHT22;29438;50.664;10.098;2023-03-14T14:27:18;6.40;91.20
43808;DHT22;29438;50.664;10.098;2023-03-14T14:30:46;6.20;90.60
43808;DHT22;29438;50.664;10.098;2023-03-14T14:32:52;6.10;91.10
43808;DHT22;29438;50.664;10.098;2023-03-14T14:35:35;5.70;90.00
43808;DHT22;29438;50.664;10.098;2023-03-14T14:38:01;5.60;89.80
43808;DHT22;29438;50.664;10.098;2023-03-14T14:40:29;5.60;90.40
43808;DHT22;29438;50.664;10.098;2023-03-14T14:43:02;5.30;89.90
43808;DHT22;29438;50.664;10.098;2023-03-14T14:45:29;5.30;91.10
43808;DHT22;29438;50.664;10.098;2023-03-14T14:48:00;5.20;90.90
43808;DHT22;29438;50.664;10.098;2023-03-14T14:50:33;5.30;91.40
43808;DHT22;29438;50.664;10.098;2023-03-14T14:53:02;5.30;91.30
43808;DHT22;29438;50.664;10.098;2023-03-14T14:55:39;5.30;91.10
43808;DHT22;29438;50.664;10.098;2023-03-14T15:01:37;5.20;90.50
43808;DHT22;29438;50.664;10.098;2023-03-14T15:03:37;5.10;89.50
43808;DHT22;29438;50.664;10.098;2023-03-14T15:06:04;5.00;89.30
43808;DHT22;29438;50.664;10.098;2023-03-14T15:08:30;5.00;89.00
43808;DHT22;29438;50.664;10.098;2023-03-14T15:10:56;5.00;89.50
43808;DHT22;29438;50.664;10.098;2023-03-14T15:13:22;4.80;88.90
43808;DHT22;29438;50.664;10.098;2023-03-14T15:15:49;4.70;89.10
43808;DHT22;29438;50.664;10.098;2023-03-14T15:18:21;4.70;88.40
43808;DHT22;29438;50.664;10.098;2023-03-14T15:20:47;4.60;88.50
43808;DHT22;29438;50.664;10.098;2023-03-14T15:23:15;4.50;88.80
43808;DHT22;29438;50.664;10.098;2023-03-14T15:25:41;4.40;89.10
43808;DHT22;29438;50.664;10.098;2023-03-14T15:28:27;4.40;88.80
43808;DHT22;29438;50.664;10.098;2023-03-14T15:30:55;4.60;89.80
43808;DHT22;29438;50.664;10.098;2023-03-14T15:33:21;4.70;89.50
43808;DHT22;29438;50.664;10.098;2023-03-14T15:35:48;4.70;89.60
43808;DHT22;29438;50.664;10.098;2023-03-14T15:38:16;4.80;89.50
43808;DHT22;29438;50.664;10.098;2023-03-14T15:40:42;4.90;88.20
43808;DHT22;29438;50.664;10.098;2023-03-14T15:43:08;4.90;87.80
43808;DHT22;29438;50.664;10.098;2023-03-14T15:45:34;5.00;87.80
43808;DHT22;29438;50.664;10.098;2023-03-14T15:48:00;5.00;87.90
43808;DHT22;29438;50.664;10.098;2023-03-14T15:50:25;4.60;85.80
43808;DHT22;29438;50.664;10.098;2023-03-14T15:52:51;4.40;85.80
43808;DHT22;29438;50.664;10.098;2023-03-14T15:55:17;4.20;86.40
43808;DHT22;29438;50.664;10.098;2023-03-14T15:57:43;4.10;86.20
43808;DHT22;29438;50.664;10.098;2023-03-14T16:00:12;4.00;87.30
43808;DHT22;29438;50.664;10.098;2023-03-14T16:02:40;4.00;87.20
43808;DHT22;29438;50.664;10.098;2023-03-14T16:05:07;4.10;87.40
43808;DHT22;29438;50.664;10.098;2023-03-14T16:07:33;4.10;87.10
43808;DHT22;29438;50.664;10.098;2023-03-14T16:09:59;4.10;88.10
43808;DHT22;29438;50.664;10.098;2023-03-14T16:12:24;4.10;87.80
43808;DHT22;29438;50.664;10.098;2023-03-14T16:14:50;4.00;87.50
43808;DHT22;29438;50.664;10.098;2023-03-14T16:17:15;3.90;88.30
43808;DHT22;29438;50.664;10.098;2023-03-14T16:19:41;3.90;88.30
43808;DHT22;29438;50.664;10.098;2023-03-14T16:22:06;3.90;88.70
43808;DHT22;29438;50.664;10.098;2023-03-14T16:24:32;3.80;87.60
43808;DHT22;29438;50.664;10.098;2023-03-14T16:26:57;3.70;87.70
43808;DHT22;29438;50.664;10.098;2023-03-14T16:29:23;3.60;87.50
43808;DHT22;29438;50.664;10.098;2023-03-14T16:31:48;3.60;87.60
43808;DHT22;29438;50.664;10.098;2023-03-14T16:34:14;3.60;87.70
43808;DHT22;29438;50.664;10.098;2023-03-14T16:36:39;3.70;87.80
43808;DHT22;29438;50.664;10.098;2023-03-14T16:39:05;3.60;87.30
43808;DHT22;29438;50.664;10.098;2023-03-14T16:41:30;3.50;87.80